Time;durP1;ratioP1;P1;durP2;ratioP2;P2;SDS_P1;SDS_P2;PMS_P1;PMS_P2;Temp;Humidity;BMP_temperature;BMP_pressure;BME280_temperature;BME280_humidity;BME280_pressure;Samples;Min_cycle;Max_cycle;Signal;HPM_P1;HPM_P2
2021/10/18 00:00:28;;;;;;;;;39.00;31.75;;;;;11.34;70.41;101719.09;5001866;28;45323;-57
2021/10/18 00:02:53;;;;;;;;;45.75;36.00;;;;;11.31;69.96;101719.16;5000628;28;45263;-57
2021/10/18 00:05:18;;;;;;;;;31.75;27.25;;;;;11.27;70.73;101721.81;5002459;28;45322;-57
2021/10/18 00:07:44;;;;;;;;;35.50;31.25;;;;;11.24;70.76;101724.47;5001892;28;45341;-58
2021/10/18 00:10:11;;;;;;;;;43.75;34.50;;;;;11.23;70.40;101717.53;4984191;28;47267;-57
2021/10/18 00:12:36;;;;;;;;;40.75;34.00;;;;;11.20;70.78;101720.16;5001763;28;45369;-57
2021/10/18 00:15:04;;;;;;;;;32.75;29.25;;;;;11.19;70.96;101717.56;5002126;28;45264;-57
2021/10/18 00:17:29;;;;;;;;;37.50;31.25;;;;;11.16;71.12;101721.09;5001654;28;45313;-57
2021/10/18 00:19:55;;;;;;;;;41.25;32.50;;;;;11.15;71.06;101724.56;5001338;28;45177;-57
2021/10/18 00:22:20;;;;;;;;;43.00;32.00;;;;;11.12;71.07;101713.34;5000759;28;45320;-57
2021/10/18 00:24:45;;;;;;;;;43.50;33.25;;;;;11.12;71.04;101731.56;4999068;28;45571;-57
2021/10/18 00:27:11;;;;;;;;;41.50;32.50;;;;;11.08;71.04;101720.34;4999516;28;45376;-57
2021/10/18 00:29:36;;;;;;;;;31.25;24.00;;;;;11.07;71.46;101716.03;4996915;28;46390;-57
2021/10/18 00:32:02;;;;;;;;;38.00;35.00;;;;;11.06;71.54;101721.25;4999209;28;45310;-58
2021/10/18 00:34:27;;;;;;;;;39.25;29.25;;;;;11.03;72.08;101719.56;4999889;28;45582;-57
2021/10/18 00:36:53;;;;;;;;;27.25;26.25;;;;;11.01;71.97;101710.03;5010042;28;45706;-57
2021/10/18 00:39:18;;;;;;;;;37.75;33.50;;;;;11.00;72.24;101710.91;4999817;28;45378;-56
2021/10/18 00:41:44;;;;;;;;;38.25;32.25;;;;;10.97;71.80;101720.47;4999180;28;45850;-57
2021/10/18 00:44:09;;;;;;;;;34.75;30.75;;;;;10.96;72.42;101721.34;4998400;28;45541;-56
2021/10/18 00:46:35;;;;;;;;;37.25;31.00;;;;;10.95;72.03;101726.59;4999093;28;45759;-57
2021/10/18 00:49:00;;;;;;;;;41.00;33.75;;;;;10.93;72.17;101723.16;4999015;28;46207;-57
2021/10/18 00:51:28;;;;;;;;;37.00;32.50;;;;;10.92;72.01;101731.81;4999126;28;45389;-57
2021/10/18 00:53:56;;;;;;;;;40.25;32.50;;;;;10.91;72.26;101730.97;4999192;28;45472;-57
2021/10/18 00:56:23;;;;;;;;;36.25;33.75;;;;;10.93;72.31;101726.59;5001361;28;45183;-58
2021/10/18 00:58:50;;;;;;;;;43.50;35.50;;;;;10.93;72.32;101730.94;5000514;28;45314;-57
2021/10/18 01:01:16;;;;;;;;;39.25;31.00;;;;;10.93;72.14;101733.53;4999533;28;46073;-57
2021/10/18 01:03:42;;;;;;;;;38.00;33.50;;;;;10.90;72.28;101736.19;5001567;28;45333;-57
2021/10/18 01:06:07;;;;;;;;;39.75;34.25;;;;;10.88;72.21;101735.34;5001171;28;45262;-57
2021/10/18 01:08:33;;;;;;;;;41.50;35.00;;;;;10.87;72.24;101739.69;5001207;28;46163;-57
2021/10/18 01:10:58;;;;;;;;;41.50;32.50;;;;;10.85;72.58;101732.78;5000764;28;45377;-57
2021/10/18 01:13:24;;;;;;;;;40.50;35.50;;;;;10.83;72.56;101734.56;5001315;28;45301;-57
2021/10/18 01:15:49;;;;;;;;;41.25;32.00;;;;;10.82;72.58;101740.66;5000617;28;45412;-59
2021/10/18 01:18:15;;;;;;;;;41.75;34.75;;;;;10.79;73.30;101728.50;4983398;28;46039;-57
2021/10/18 01:20:42;;;;;;;;;40.75;33.00;;;;;10.75;73.16;101731.19;5000739;28;45708;-58
2021/10/18 01:23:09;;;;;;;;;36.00;32.50;;;;;10.74;74.16;101727.72;5000623;28;45427;-56
2021/10/18 01:25:36;;;;;;;;;39.00;37.75;;;;;10.73;73.43;101730.34;5000534;28;45434;-56
2021/10/18 01:28:03;;;;;;;;;38.50;30.75;;;;;10.71;73.27;101727.75;5000762;28;45310;-56
2021/10/18 01:30:29;;;;;;;;;48.00;32.50;;;;;10.70;73.52;101731.25;4998765;28;45719;-56
2021/10/18 01:32:55;;;;;;;;;36.75;31.25;;;;;10.70;73.47;101735.56;4999281;28;45340;-56
2021/10/18 01:35:21;;;;;;;;;43.50;36.75;;;;;10.67;73.22;101728.69;5000552;28;45376;-57
2021/10/18 01:37:49;;;;;;;;;34.75;29.50;;;;;10.68;73.67;101735.59;4990830;28;46373;-56
2021/10/18 01:40:16;;;;;;;;;35.75;33.00;;;;;10.68;73.24;101730.41;5000258;28;45397;-56
2021/10/18 01:42:42;;;;;;;;;46.25;36.00;;;;;10.69;73.53;101736.47;5000653;28;45338;-56
2021/10/18 01:45:10;;;;;;;;;47.25;35.25;;;;;10.69;73.41;101726.06;5000478;28;45493;-56
2021/10/18 01:47:36;;;;;;;;;38.25;32.50;;;;;10.66;73.84;101717.44;5000632;28;45306;-56
2021/10/18 01:50:08;;;;;;;;;44.00;33.00;;;;;10.62;73.74;101717.50;5000574;28;45365;-56
2021/10/18 01:52:34;;;;;;;;;44.25;34.75;;;;;10.59;74.31;101720.97;5000798;28;45421;-56
2021/10/18 01:54:59;;;;;;;;;44.25;34.25;;;;;10.57;75.16;101714.91;5000344;28;45282;-56
2021/10/18 01:57:25;;;;;;;;;39.00;32.25;;;;;10.53;74.89;101705.44;5000437;28;45469;-56
2021/10/18 01:59:50;;;;;;;;;42.50;33.25;;;;;10.50;74.63;101708.09;5000140;28;45377;-56
2021/10/18 02:02:15;;;;;;;;;38.00;31.25;;;;;10.47;74.59;101700.31;4999267;28;45461;-56
2021/10/18 02:04:41;;;;;;;;;38.25;32.00;;;;;10.49;74.31;101714.16;4999939;28;45444;-56
2021/10/18 02:07:06;;;;;;;;;42.75;31.00;;;;;10.49;74.13;101711.56;5000004;28;46013;-56
2021/10/18 02:09:31;;;;;;;;;37.75;29.00;;;;;10.49;74.74;101708.09;4999905;28;45215;-55
2021/10/18 02:11:57;;;;;;;;;39.75;32.50;;;;;10.45;75.01;101702.09;5000510;28;45278;-55
2021/10/18 02:14:22;;;;;;;;;37.00;32.25;;;;;10.43;74.87;101701.25;4999803;28;45283;-55
2021/10/18 02:16:47;;;;;;;;;40.25;33.50;;;;;10.43;75.08;101700.38;4998849;28;45336;-55
2021/10/18 02:19:13;;;;;;;;;36.75;30.50;;;;;10.41;75.13;101704.72;5000051;28;45469;-55
2021/10/18 02:21:38;;;;;;;;;42.25;33.50;;;;;10.41;74.45;101702.13;5000198;28;45203;-56
2021/10/18 02:24:04;;;;;;;;;30.25;27.00;;;;;10.41;75.11;101702.13;4981700;28;45237;-55
2021/10/18 02:26:29;;;;;;;;;34.75;31.75;;;;;10.40;75.25;101695.19;5000231;28;46237;-56
2021/10/18 02:28:54;;;;;;;;;34.25;31.75;;;;;10.37;75.29;101698.69;4999806;28;45460;-57
2021/10/18 02:31:20;;;;;;;;;36.75;31.00;;;;;10.36;75.47;101699.56;5000286;28;45386;-57
2021/10/18 02:33:45;;;;;;;;;43.00;32.75;;;;;10.35;75.24;101692.66;4997238;28;45466;-58
2021/10/18 02:36:11;;;;;;;;;40.00;31.50;;;;;10.34;75.36;101686.59;5006542;28;46290;-57
2021/10/18 02:38:38;;;;;;;;;46.50;38.50;;;;;10.36;74.51;101691.78;5003270;28;45371;-57
2021/10/18 02:41:04;;;;;;;;;41.25;36.00;;;;;10.38;75.23;101691.75;5000087;28;45295;-57
2021/10/18 02:43:29;;;;;;;;;36.25;32.00;;;;;10.36;75.10;101684.84;4999659;28;45433;-57
2021/10/18 02:45:55;;;;;;;;;39.25;32.00;;;;;10.38;74.71;101684.81;4999690;28;46145;-57
2021/10/18 02:48:20;;;;;;;;;45.00;34.50;;;;;10.39;74.76;101683.94;4990259;28;45218;-57
2021/10/18 02:50:45;;;;;;;;;37.75;34.00;;;;;10.41;74.71;101682.22;4999915;28;45236;-57
2021/10/18 02:53:11;;;;;;;;;42.25;36.25;;;;;10.42;74.88;101681.34;4999722;28;45561;-57
2021/10/18 02:55:36;;;;;;;;;39.25;35.75;;;;;10.43;74.54;101679.59;4999505;28;46072;-57
2021/10/18 02:58:01;;;;;;;;;39.75;33.50;;;;;10.43;74.83;101675.25;4999480;28;45397;-56
2021/10/18 03:00:27;;;;;;;;;42.25;34.50;;;;;10.44;74.75;101670.91;4999768;28;45282;-56
2021/10/18 03:02:52;;;;;;;;;50.00;37.75;;;;;10.43;75.11;101675.25;4998184;28;45231;-56
2021/10/18 03:05:18;;;;;;;;;33.75;30.50;;;;;10.43;74.80;101672.66;4999752;28;45409;-56
2021/10/18 03:07:43;;;;;;;;;42.25;33.50;;;;;10.43;74.95;101674.41;4999489;28;45149;-56
2021/10/18 03:10:08;;;;;;;;;40.75;35.25;;;;;10.41;74.73;101669.22;4999669;28;45697;-56
2021/10/18 03:12:35;;;;;;;;;39.25;36.00;;;;;10.40;74.94;101667.47;4999175;28;45332;-56
2021/10/18 03:15:01;;;;;;;;;37.50;34.75;;;;;10.43;74.97;101666.59;4999410;28;46920;-56
2021/10/18 03:17:27;;;;;;;;;52.00;38.00;;;;;10.41;74.56;101661.44;4998966;28;45506;-56
2021/10/18 03:19:52;;;;;;;;;40.25;29.50;;;;;10.40;74.76;101672.66;5002643;28;45402;-56
2021/10/18 03:22:18;;;;;;;;;40.25;35.75;;;;;10.37;74.79;101664.91;5002429;28;45402;-56
2021/10/18 03:24:43;;;;;;;;;39.25;35.00;;;;;10.38;74.87;101665.78;5002448;28;46343;-56
2021/10/18 03:27:09;;;;;;;;;46.25;35.25;;;;;10.36;74.76;101671.00;5001404;28;45451;-56
2021/10/18 03:29:34;;;;;;;;;39.75;31.75;;;;;10.34;74.96;101668.41;4992282;28;45267;-56
2021/10/18 03:31:59;;;;;;;;;43.75;36.25;;;;;10.33;74.84;101673.63;5002503;28;45259;-56
2021/10/18 03:34:25;;;;;;;;;47.50;36.50;;;;;10.32;74.66;101683.16;5002657;28;45285;-56
2021/10/18 03:36:50;;;;;;;;;36.00;32.00;;;;;10.29;74.57;101677.16;4999882;28;45410;-56
2021/10/18 03:39:16;;;;;;;;;34.25;28.75;;;;;10.26;74.71;101672.84;5002324;28;45454;-56
2021/10/18 03:41:41;;;;;;;;;38.50;34.75;;;;;10.26;75.26;101672.00;5002144;28;45324;-56
2021/10/18 03:44:06;;;;;;;;;38.75;32.25;;;;;10.24;75.26;101676.34;5001925;28;45223;-56
2021/10/18 03:46:32;;;;;;;;;44.00;33.75;;;;;10.23;75.71;101672.03;5002027;28;45207;-56
2021/10/18 03:48:57;;;;;;;;;44.75;33.25;;;;;10.22;75.98;101678.09;5002508;28;45326;-57
2021/10/18 03:51:23;;;;;;;;;36.75;31.50;;;;;10.22;75.89;101685.91;5002186;28;45269;-56
2021/10/18 03:53:49;;;;;;;;;37.00;32.75;;;;;10.20;75.78;101691.03;5002019;28;46941;-56
2021/10/18 03:56:14;;;;;;;;;45.00;35.25;;;;;10.22;75.82;101683.31;5001974;28;45333;-57
2021/10/18 03:58:39;;;;;;;;;48.75;36.50;;;;;10.21;76.05;101695.44;5002162;28;45382;-56
2021/10/18 04:01:09;;;;;;;;;47.00;37.00;;;;;10.23;76.11;101687.63;5001560;28;45598;-57
2021/10/18 04:03:38;;;;;;;;;46.50;37.75;;;;;10.23;75.88;101701.47;5001522;28;45396;-58
2021/10/18 04:06:04;;;;;;;;;37.00;33.50;;;;;10.21;76.42;101689.34;5001984;28;45223;-57
2021/10/18 04:08:32;;;;;;;;;42.75;35.75;;;;;10.20;76.15;101692.78;5002084;28;45376;-57
2021/10/18 04:10:58;;;;;;;;;41.75;35.00;;;;;10.17;76.47;101695.41;5001858;28;45314;-57
2021/10/18 04:13:24;;;;;;;;;40.25;36.00;;;;;10.15;76.65;101692.84;5001942;28;46277;-58
2021/10/18 04:15:49;;;;;;;;;51.75;38.25;;;;;10.15;76.24;101698.03;5001573;28;45275;-57
2021/10/18 04:18:14;;;;;;;;;53.25;38.00;;;;;10.16;75.97;101699.75;5002304;28;45198;-56
2021/10/18 04:20:40;;;;;;;;;41.75;35.50;;;;;10.18;76.49;101702.34;5001512;28;45354;-56
2021/10/18 04:23:05;;;;;;;;;41.75;34.25;;;;;10.18;76.75;101704.94;5001638;28;46030;-56
2021/10/18 04:25:30;;;;;;;;;37.25;32.50;;;;;10.15;76.51;101704.97;5001646;28;45267;-56
2021/10/18 04:27:56;;;;;;;;;41.50;36.00;;;;;10.16;76.54;101706.69;5001504;28;45219;-56
2021/10/18 04:30:21;;;;;;;;;36.25;35.75;;;;;10.16;76.27;101711.88;5001649;28;45224;-56
2021/10/18 04:32:46;;;;;;;;;39.00;29.00;;;;;10.16;76.15;101710.16;5000361;28;45341;-56
2021/10/18 04:35:12;;;;;;;;;39.25;34.75;;;;;10.18;76.12;101711.00;5001656;28;45188;-57
2021/10/18 04:37:37;;;;;;;;;41.00;36.50;;;;;10.17;76.32;101716.19;5011704;28;45272;-57
2021/10/18 04:40:03;;;;;;;;;52.75;41.00;;;;;10.18;76.38;101711.00;4998575;28;45411;-57
2021/10/18 04:42:28;;;;;;;;;45.50;37.75;;;;;10.18;75.96;101717.91;5001245;28;45468;-57
2021/10/18 04:44:54;;;;;;;;;47.75;35.50;;;;;10.18;76.68;101720.50;5001151;28;45436;-57
2021/10/18 04:47:19;;;;;;;;;44.75;38.00;;;;;10.18;76.16;101718.78;5001535;28;45578;-57
2021/10/18 04:49:45;;;;;;;;;37.50;36.00;;;;;10.19;76.61;101722.25;5001104;28;45480;-57
2021/10/18 04:52:10;;;;;;;;;40.75;34.25;;;;;10.21;76.87;101717.91;5001376;28;45274;-58
2021/10/18 04:54:35;;;;;;;;;36.75;34.25;;;;;10.21;76.36;101723.13;4996856;28;45383;-57
2021/10/18 04:57:01;;;;;;;;;44.50;34.00;;;;;10.20;76.37;101724.81;5001670;28;45353;-57
2021/10/18 04:59:26;;;;;;;;;55.00;38.50;;;;;10.23;76.38;101729.19;5000665;28;45376;-58
2021/10/18 05:01:51;;;;;;;;;53.00;39.00;;;;;10.22;76.15;101732.66;4993265;28;46783;-58
2021/10/18 05:04:17;;;;;;;;;48.67;39.00;;;;;10.21;76.09;101730.91;5000805;28;45377;-58
2021/10/18 05:06:42;;;;;;;;;41.75;37.75;;;;;10.20;76.58;101737.81;4999525;28;45377;-58
2021/10/18 05:09:08;;;;;;;;;44.00;36.00;;;;;10.21;76.32;101749.09;5000508;28;45272;-58
2021/10/18 05:11:34;;;;;;;;;51.25;33.75;;;;;10.20;75.98;101750.78;5000974;28;47467;-57
2021/10/18 05:14:00;;;;;;;;;41.25;37.25;;;;;10.17;76.53;101749.97;5000788;28;45795;-58
2021/10/18 05:16:25;;;;;;;;;43.00;36.50;;;;;10.16;76.20;101743.06;4998583;28;45540;-58
2021/10/18 05:18:51;;;;;;;;;37.75;32.50;;;;;10.11;76.35;101747.44;4999114;28;45552;-57
2021/10/18 05:21:16;;;;;;;;;41.75;36.00;;;;;10.10;76.55;101745.72;4999756;28;46013;-60
2021/10/18 05:23:41;;;;;;;;;42.25;33.50;;;;;10.10;76.68;101748.31;4999404;28;45516;-59
2021/10/18 05:26:07;;;;;;;;;50.75;35.25;;;;;10.11;77.29;101744.84;5000311;28;45262;-60
2021/10/18 05:28:32;;;;;;;;;36.25;31.75;;;;;10.11;77.56;101745.69;4999991;28;45298;-59
2021/10/18 05:30:58;;;;;;;;;42.25;32.00;;;;;10.13;77.42;101736.16;5000065;28;45869;-74
2021/10/18 05:33:23;;;;;;;;;41.25;31.75;;;;;10.15;77.35;101742.19;5000543;28;45278;-60
2021/10/18 05:35:48;;;;;;;;;53.75;41.50;;;;;10.18;78.18;101744.75;5004308;28;45473;-60
2021/10/18 05:38:18;;;;;;;;;58.50;42.00;;;;;10.22;78.11;101743.06;5006868;28;45579;-60
2021/10/18 05:40:43;;;;;;;;;47.25;38.25;;;;;10.24;78.03;101743.88;4997294;28;46429;-60
2021/10/18 05:43:09;;;;;;;;;39.25;36.00;;;;;10.26;78.01;101729.16;4999406;28;45369;-60
2021/10/18 05:45:34;;;;;;;;;44.75;33.25;;;;;10.27;77.72;101733.47;5000584;28;45286;-60
2021/10/18 05:48:04;;;;;;;;;46.25;37.75;;;;;10.31;78.61;101737.75;5000464;28;45336;-60
2021/10/18 05:50:33;;;;;;;;;52.25;38.25;;;;;10.34;78.50;101735.09;5000597;28;45408;-60
2021/10/18 05:52:59;;;;;;;;;44.50;36.00;;;;;10.38;78.48;101735.94;5000285;28;45305;-60
2021/10/18 05:55:25;;;;;;;;;44.75;38.00;;;;;10.41;78.77;101730.69;5000378;28;45250;-61
2021/10/18 05:57:50;;;;;;;;;38.75;33.50;;;;;10.43;79.10;101735.03;4999076;28;45674;-60
2021/10/18 06:00:16;;;;;;;;;42.50;35.75;;;;;10.47;78.82;101749.69;5000187;28;46068;-60
2021/10/18 06:02:42;;;;;;;;;37.75;32.75;;;;;10.50;79.02;101749.66;4998373;28;45295;-60
2021/10/18 06:05:07;;;;;;;;;40.50;34.25;;;;;10.49;79.69;101740.16;5000169;28;45377;-61
2021/10/18 06:07:33;;;;;;;;;36.50;30.00;;;;;10.51;79.37;101750.53;4999744;28;45221;-59
2021/10/18 06:09:58;;;;;;;;;35.00;29.75;;;;;10.54;79.45;101756.53;4999228;28;45257;-59
2021/10/18 06:12:23;;;;;;;;;48.33;35.33;;;;;10.56;79.59;101756.53;4999655;28;45239;-63
2021/10/18 06:14:49;;;;;;;;;35.00;29.75;;;;;10.60;79.28;101761.66;5000008;28;45448;-62
2021/10/18 06:17:14;;;;;;;;;54.00;36.25;;;;;10.63;79.14;101760.78;4999419;28;45360;-61
2021/10/18 06:19:39;;;;;;;;;36.50;29.75;;;;;10.64;79.40;101760.78;4999577;28;45300;-60
2021/10/18 06:22:05;;;;;;;;;33.50;30.00;;;;;10.68;79.81;101769.41;4999555;28;45352;-59
2021/10/18 06:24:30;;;;;;;;;34.00;29.00;;;;;10.70;79.02;101758.97;4999515;28;45491;-61
2021/10/18 06:26:55;;;;;;;;;35.50;28.00;;;;;10.74;78.79;101755.47;4990910;28;45453;-61
2021/10/18 06:29:21;;;;;;;;;40.25;30.50;;;;;10.78;78.97;101755.41;4999301;28;46067;-61
2021/10/18 06:31:47;;;;;;;;;42.75;30.50;;;;;10.82;78.96;101766.66;4999621;28;45424;-61
2021/10/18 06:34:12;;;;;;;;;37.00;29.50;;;;;10.85;78.76;101767.47;5000955;28;45416;-61
2021/10/18 06:36:38;;;;;;;;;34.25;26.75;;;;;10.89;78.80;101768.28;4999715;28;45526;-56
2021/10/18 06:39:03;;;;;;;;;31.75;27.00;;;;;10.92;78.82;101761.28;4999477;28;46071;-62
2021/10/18 06:41:28;;;;;;;;;25.25;22.75;;;;;10.98;78.67;101768.16;4999304;28;45349;-61
2021/10/18 06:43:54;;;;;;;;;32.50;25.50;;;;;11.01;78.80;101765.50;4996756;28;45379;-62
2021/10/18 06:46:19;;;;;;;;;29.50;26.25;;;;;11.06;78.56;101775.88;4999500;28;45298;-62
2021/10/18 06:48:45;;;;;;;;;29.25;26.50;;;;;11.11;78.62;101774.06;4999220;28;46016;-64
2021/10/18 06:51:10;;;;;;;;;48.25;34.50;;;;;11.18;78.29;101775.69;4999319;28;45243;-63
2021/10/18 06:53:37;;;;;;;;;39.75;28.25;;;;;11.22;78.44;101770.47;4999193;28;45294;-66
2021/10/18 06:56:04;;;;;;;;;31.50;23.50;;;;;11.27;78.68;101766.03;4999187;28;45456;-63
2021/10/18 06:58:30;;;;;;;;;33.00;28.75;;;;;11.34;78.12;101774.63;4999205;28;46080;-65
2021/10/18 07:00:56;;;;;;;;;30.00;25.25;;;;;11.38;77.81;101775.41;4998721;28;45322;-66
2021/10/18 07:03:21;;;;;;;;;35.00;30.00;;;;;11.42;77.76;101788.41;4998129;28;45411;-66
2021/10/18 07:05:46;;;;;;;;;34.50;28.75;;;;;11.46;77.87;101784.00;4999403;28;45330;-63
2021/10/18 07:08:12;;;;;;;;;33.25;29.25;;;;;11.52;77.66;101776.09;4999038;28;45497;-59
2021/10/18 07:10:37;;;;;;;;;31.50;27.25;;;;;11.57;77.60;101779.47;4999036;28;45295;-61
2021/10/18 07:13:09;;;;;;;;;30.50;27.00;;;;;11.63;77.55;101782.00;4999175;28;45330;-62
2021/10/18 07:15:35;;;;;;;;;33.25;24.00;;;;;11.70;77.58;101782.78;4999086;28;45468;-62
2021/10/18 07:18:00;;;;;;;;;31.50;27.75;;;;;11.82;77.18;101786.09;4999040;28;46247;-68
2021/10/18 07:20:25;;;;;;;;;34.50;29.50;;;;;11.90;76.93;101787.69;4999184;28;45341;-65
2021/10/18 07:22:55;;;;;;;;;19.50;14.75;;;;;11.95;76.97;101785.88;4998733;28;45802;-64
2021/10/18 07:25:21;;;;;;;;;32.75;24.25;;;;;12.03;76.63;101777.06;4998950;28;45447;-64
2021/10/18 07:27:46;;;;;;;;;31.50;25.50;;;;;12.11;76.51;101774.31;4998598;28;46185;-67
2021/10/18 07:30:12;;;;;;;;;30.00;29.00;;;;;12.21;76.23;101781.06;4999013;28;45306;-59
2021/10/18 07:32:42;;;;;;;;;32.00;26.50;;;;;12.28;75.85;101787.06;4998040;28;45287;-58
2021/10/18 07:35:09;;;;;;;;;32.75;25.00;;;;;12.38;75.74;101780.78;4998811;28;45317;-58
2021/10/18 07:37:34;;;;;;;;;32.50;27.00;;;;;12.49;75.48;101784.06;4998796;28;46955;-57
2021/10/18 07:40:00;;;;;;;;;32.25;23.75;;;;;12.60;75.32;101783.84;4998739;28;45277;-58
2021/10/18 07:42:25;;;;;;;;;26.25;25.00;;;;;12.70;75.00;101788.00;4981135;28;45361;-60
2021/10/18 07:44:53;;;;;;;;;30.00;26.50;;;;;12.81;74.98;101783.41;4996336;28;45361;-60
2021/10/18 07:47:18;;;;;;;;;35.25;27.75;;;;;12.92;74.59;101785.81;4994396;28;46101;-61
2021/10/18 07:49:44;;;;;;;;;34.50;25.75;;;;;13.00;74.15;101776.06;4998649;28;45293;-59
2021/10/18 07:52:12;;;;;;;;;37.00;29.75;;;;;13.09;74.17;101770.69;4998590;28;45225;-60
2021/10/18 07:54:42;;;;;;;;;32.50;27.00;;;;;13.15;73.65;101778.38;4998455;28;45363;-60
2021/10/18 07:57:08;;;;;;;;;35.00;29.50;;;;;13.16;73.64;101781.84;4998700;28;45286;-60
2021/10/18 07:59:33;;;;;;;;;35.75;27.25;;;;;13.19;73.70;101787.00;4998575;28;45163;-60
2021/10/18 08:01:59;;;;;;;;;26.25;22.00;;;;;13.24;73.71;101787.81;4997308;28;45286;-62
2021/10/18 08:04:25;;;;;;;;;34.75;30.00;;;;;13.27;73.56;101795.56;5000626;28;46138;-61
2021/10/18 08:06:50;;;;;;;;;34.25;29.00;;;;;13.29;73.37;101805.06;5001847;28;45380;-60
2021/10/18 08:09:16;;;;;;;;;33.75;27.25;;;;;13.34;73.07;101803.22;4983746;28;45493;-62
2021/10/18 08:11:41;;;;;;;;;37.00;30.00;;;;;13.43;73.18;101802.16;5002004;28;45459;-61
2021/10/18 08:14:07;;;;;;;;;32.00;30.50;;;;;13.50;73.09;101793.28;5001661;28;45412;-63
2021/10/18 08:16:32;;;;;;;;;38.50;29.25;;;;;13.63;73.02;101802.56;5001353;28;45447;-60
2021/10/18 08:18:58;;;;;;;;;34.00;30.75;;;;;13.77;72.57;101803.97;5001778;28;45319;-62
2021/10/18 08:21:23;;;;;;;;;39.25;30.25;;;;;13.87;72.49;101813.34;5001784;28;45307;-62
2021/10/18 08:23:49;;;;;;;;;33.25;30.25;;;;;13.91;71.96;101817.59;5000710;28;45705;-66
2021/10/18 08:26:15;;;;;;;;;33.00;32.00;;;;;13.96;71.91;101818.31;5001815;28;45354;-64
2021/10/18 08:28:40;;;;;;;;;36.75;29.00;;;;;14.06;71.69;101821.59;4983218;28;45589;-58
2021/10/18 08:31:06;;;;;;;;;40.75;31.75;;;;;14.18;71.61;101824.75;5001860;28;45507;-59
2021/10/18 08:33:32;;;;;;;;;30.75;30.50;;;;;14.31;71.17;101825.31;5001508;28;45255;-60
2021/10/18 08:35:57;;;;;;;;;33.25;25.25;;;;;14.39;70.80;101823.34;5001419;28;45192;-60
2021/10/18 08:41:32;;;;;;;;;37.00;31.25;;;;;14.65;70.12;101819.22;5000982;28;45454;-58
2021/10/18 08:44:16;;;;;;;;;37.25;29.00;;;;;14.69;69.45;101808.63;5000521;28;45420;-60
2021/10/18 08:46:52;;;;;;;;;37.75;31.00;;;;;14.70;69.49;101804.25;5000941;28;46590;-58
2021/10/18 08:49:22;;;;;;;;;38.50;28.75;;;;;14.76;69.18;101804.06;4998739;28;45924;-58
2021/10/18 08:51:48;;;;;;;;;33.75;29.25;;;;;14.79;69.38;101801.38;5001393;28;45397;-59
2021/10/18 08:54:15;;;;;;;;;36.50;29.00;;;;;14.81;68.96;101800.41;5000668;28;45342;-59
2021/10/18 08:56:40;;;;;;;;;33.00;29.00;;;;;14.88;69.00;101804.59;5000848;28;46993;-58
2021/10/18 08:59:06;;;;;;;;;39.00;29.75;;;;;14.93;69.16;101799.22;5000996;28;45457;-59
2021/10/18 09:01:41;;;;;;;;;30.75;26.00;;;;;14.97;69.03;101794.75;4999573;28;45467;-59
2021/10/18 09:04:11;;;;;;;;;36.25;31.00;;;;;15.00;68.70;101799.91;5000785;28;45311;-59
2021/10/18 09:06:43;;;;;;;;;37.75;30.50;;;;;15.04;68.65;101802.41;5000838;28;45251;-59
2021/10/18 09:09:09;;;;;;;;;37.00;30.50;;;;;15.08;68.72;101796.19;5001238;28;45846;-59
2021/10/18 09:11:34;;;;;;;;;29.00;28.00;;;;;15.15;68.62;101787.22;5001098;28;45271;-59
2021/10/18 09:14:02;;;;;;;;;33.25;31.50;;;;;15.24;68.36;101774.78;5000817;28;45199;-58
2021/10/18 09:16:37;;;;;;;;;37.25;28.00;;;;;15.32;68.60;101768.38;4999021;28;47291;-59
2021/10/18 09:19:11;;;;;;;;;31.75;27.25;;;;;15.40;68.33;101768.13;4983098;28;45416;-59
2021/10/18 09:21:40;;;;;;;;;33.00;30.75;;;;;15.43;68.04;101762.84;5000889;28;45409;-59
2021/10/18 09:24:07;;;;;;;;;35.25;30.25;;;;;15.40;67.73;101768.13;4999704;28;45481;-58
2021/10/18 09:26:34;;;;;;;;;31.00;27.50;;;;;15.29;68.03;101776.34;5000844;28;45329;-60
2021/10/18 09:29:12;;;;;;;;;38.25;31.00;;;;;15.20;68.51;101774.00;5000337;28;45802;-61
2021/10/18 09:31:39;;;;;;;;;33.50;30.00;;;;;15.22;68.64;101774.81;5000429;28;45294;-59
2021/10/18 09:34:16;;;;;;;;;38.75;30.50;;;;;15.36;68.82;101774.38;5000342;28;45291;-60
2021/10/18 09:36:43;;;;;;;;;37.75;29.75;;;;;15.48;68.66;101787.13;4995038;28;46109;-59
2021/10/18 09:39:24;;;;;;;;;40.50;32.25;;;;;15.60;68.38;101780.66;5000213;28;45421;-59
2021/10/18 09:42:03;;;;;;;;;36.00;32.00;;;;;15.71;68.12;101773.31;5000292;28;45547;-59
2021/10/18 09:45:15;;;;;;;;;35.50;28.50;;;;;15.79;67.70;101782.63;5000403;28;45507;-59
2021/10/18 10:54:10;;;;;;;;;41.75;34.50;;;;;20.45;60.20;101781.47;4996030;28;45958;-56
2021/10/18 10:56:58;;;;;;;;;41.50;35.25;;;;;20.45;58.51;101779.69;4998781;28;45877;-55
2021/10/18 10:59:28;;;;;;;;;38.00;32.00;;;;;21.18;58.35;101774.88;4993890;28;45306;-57
2021/10/18 11:02:05;;;;;;;;;21.00;21.00;;;;;21.79;56.58;101766.13;4994893;28;45366;-56
2021/10/18 11:04:30;;;;;;;;;38.75;33.00;;;;;21.73;55.37;101755.91;4998608;28;45359;-56
2021/10/18 11:07:21;;;;;;;;;39.50;31.75;;;;;21.38;55.31;101753.50;4998796;28;45385;-56
2021/10/18 11:09:53;;;;;;;;;35.50;32.75;;;;;21.05;55.68;101752.72;4998689;28;45529;-56
2021/10/18 11:12:33;;;;;;;;;38.00;31.50;;;;;20.84;56.22;101749.47;4998558;28;45385;-55
2021/10/18 11:15:27;;;;;;;;;41.75;33.00;;;;;20.70;56.21;101751.97;4986843;28;46219;-56
2021/10/18 11:17:54;;;;;;;;;38.75;33.75;;;;;20.52;56.33;101754.66;4977319;28;45297;-56
2021/10/18 11:20:29;;;;;;;;;42.75;32.00;;;;;20.49;56.48;101756.63;4999106;28;45308;-56
2021/10/18 11:22:59;;;;;;;;;38.75;33.75;;;;;20.69;56.96;101766.97;4997663;28;45229;-55
2021/10/18 11:25:37;;;;;;;;;43.75;33.75;;;;;20.65;56.43;101763.66;4998325;28;46179;-56
2021/10/18 11:28:07;;;;;;;;;39.25;31.50;;;;;20.58;57.25;101775.47;4972372;28;45432;-55
2021/10/18 11:30:34;;;;;;;;;39.00;32.75;;;;;20.71;56.76;101783.59;4994131;28;45475;-55
2021/10/18 11:33:06;;;;;;;;;34.25;30.25;;;;;20.86;55.99;101761.66;4998870;28;45219;-55
2021/10/18 11:35:33;;;;;;;;;32.00;28.50;;;;;20.65;56.29;101761.00;4999698;28;46179;-54
2021/10/18 11:38:00;;;;;;;;;35.75;30.25;;;;;20.45;56.91;101760.34;5006643;28;45431;-54
2021/10/18 11:40:27;;;;;;;;;37.75;31.25;;;;;20.37;57.15;101755.44;5001711;28;45291;-53
2021/10/18 11:42:58;;;;;;;;;33.00;29.25;;;;;20.34;57.33;101743.25;4980958;28;45628;-53
2021/10/18 11:45:27;;;;;;;;;33.00;31.25;;;;;20.30;57.66;101748.78;5000058;28;45308;-55
2021/10/18 11:47:52;;;;;;;;;36.00;30.00;;;;;20.28;57.58;101735.66;5001883;28;45843;-55
2021/10/18 11:50:23;;;;;;;;;35.50;30.00;;;;;20.31;57.99;101732.00;5001940;28;45230;-55
2021/10/18 11:53:00;;;;;;;;;36.00;31.00;;;;;20.32;58.11;101716.06;5001864;28;45437;-55
2021/10/18 11:55:29;;;;;;;;;33.75;28.50;;;;;20.28;58.15;101711.91;5001720;28;46389;-55
2021/10/18 11:57:57;;;;;;;;;32.50;28.00;;;;;20.28;58.46;101706.63;5001761;28;45385;-55
2021/10/18 12:00:31;;;;;;;;;32.50;28.75;;;;;20.17;58.68;101703.66;5000561;28;45377;-55
2021/10/18 12:03:00;;;;;;;;;29.50;26.25;;;;;20.00;58.82;101703.69;5000191;28;45312;-55
2021/10/18 12:05:32;;;;;;;;;32.75;27.50;;;;;19.90;59.22;101702.47;4988806;28;47332;-55
2021/10/18 12:07:58;;;;;;;;;37.50;27.25;;;;;19.91;59.87;101690.97;5001683;28;46092;-55
2021/10/18 12:10:28;;;;;;;;;25.50;24.25;;;;;19.97;60.16;101703.84;5001986;28;45362;-57
2021/10/18 12:13:12;;;;;;;;;26.50;23.50;;;;;20.07;60.11;101697.19;5001601;28;45517;-57
2021/10/18 12:15:49;;;;;;;;;33.50;25.75;;;;;20.17;60.06;101692.25;5001708;28;46145;-57
2021/10/18 12:18:26;;;;;;;;;31.00;26.00;;;;;20.05;59.97;101693.78;5002426;28;45419;-56